Time;durP1;ratioP1;P1;durP2;ratioP2;P2;SDS_P1;SDS_P2;PMS_P1;PMS_P2;Temp;Humidity;BMP_temperature;BMP_pressure;BME280_temperature;BME280_humidity;BME280_pressure;Samples;Min_cycle;Max_cycle;Signal;HPM_P1;HPM_P2
2024/01/19 00:09:42;;;;;;;;;;;0.30;99.90;;;;;;20911346;28;19917;-77
2024/01/19 00:19:43;;;;;;;;;;;0.20;99.90;;;;;;20899145;28;19917;-78
2024/01/19 00:29:44;;;;;;;;;;;0.10;99.90;;;;;;20877385;28;20004;-78
2024/01/19 00:39:44;;;;;;;;;;;0.20;99.90;;;;;;20865752;28;20252;-77
2024/01/19 00:49:45;;;;;;;;;;;0.20;99.90;;;;;;20873596;28;19935;-77
2024/01/19 00:59:46;;;;;;;;;;;0.30;99.90;;;;;;20865655;28;20016;-77
2024/01/19 01:09:47;;;;;;;;;;;0.20;99.90;;;;;;20861584;28;19920;-77
2024/01/19 01:19:48;;;;;;;;;;;0.10;99.90;;;;;;20850739;28;19913;-77
2024/01/19 01:29:48;;;;;;;;;;;-0.10;99.90;;;;;;20845721;28;19927;-77
2024/01/19 01:39:49;;;;;;;;;;;-0.20;99.90;;;;;;20844761;28;20016;-77
2024/01/19 01:49:51;;;;;;;;;;;-0.40;99.90;;;;;;20859232;28;20220;-77
2024/01/19 01:59:53;;;;;;;;;;;-0.50;99.90;;;;;;20878510;28;19952;-77
2024/01/19 02:09:54;;;;;;;;;;;-0.30;99.90;;;;;;20876269;28;19913;-77
2024/01/19 02:19:55;;;;;;;;;;;-0.30;99.90;;;;;;20848007;28;19974;-77
2024/01/19 02:29:55;;;;;;;;;;;-0.50;99.90;;;;;;20880287;28;20303;-77
2024/01/19 02:39:56;;;;;;;;;;;-0.50;99.90;;;;;;20859438;28;19913;-77
2024/01/19 02:49:56;;;;;;;;;;;-0.50;99.90;;;;;;20845559;28;19913;-77
2024/01/19 02:59:57;;;;;;;;;;;-0.50;99.90;;;;;;20887532;28;19936;-77
2024/01/19 03:09:58;;;;;;;;;;;-0.50;99.90;;;;;;20896999;28;19920;-77
2024/01/19 03:19:59;;;;;;;;;;;-0.50;99.90;;;;;;20875722;28;19913;-77
2024/01/19 03:29:59;;;;;;;;;;;-0.40;99.90;;;;;;20891409;28;19987;-77
2024/01/19 03:40:00;;;;;;;;;;;-0.30;99.90;;;;;;20866760;28;20265;-77
2024/01/19 03:50:02;;;;;;;;;;;-0.40;99.90;;;;;;20889896;28;19990;-77
2024/01/19 04:00:05;;;;;;;;;;;-0.60;99.90;;;;;;20882451;28;20032;-78
2024/01/19 04:10:12;;;;;;;;;;;-0.50;99.90;;;;;;20858099;28;19921;-76
2024/01/19 04:20:13;;;;;;;;;;;-0.40;99.90;;;;;;20878575;28;19924;-76
2024/01/19 04:30:13;;;;;;;;;;;-0.40;99.90;;;;;;20842414;28;20411;-77
2024/01/19 04:40:14;;;;;;;;;;;-0.60;99.90;;;;;;20860943;28;19927;-76
2024/01/19 04:50:15;;;;;;;;;;;-0.50;99.90;;;;;;20841144;28;19921;-78
2024/01/19 05:00:15;;;;;;;;;;;-0.80;99.90;;;;;;20889269;28;19964;-77
2024/01/19 05:10:16;;;;;;;;;;;-1.10;99.90;;;;;;20838955;28;19919;-77
2024/01/19 05:20:18;;;;;;;;;;;-1.30;99.90;;;;;;20876716;28;19963;-75
2024/01/19 05:30:19;;;;;;;;;;;-2.00;99.90;;;;;;20904571;28;19923;-77
2024/01/19 05:40:20;;;;;;;;;;;-2.10;99.90;;;;;;20934094;28;19917;-76
2024/01/19 05:50:20;;;;;;;;;;;-2.30;99.90;;;;;;20918256;28;19920;-76
2024/01/19 06:00:21;;;;;;;;;;;-2.30;99.90;;;;;;20903096;28;20401;-75
2024/01/19 06:10:21;;;;;;;;;;;-2.60;99.90;;;;;;20878126;28;19959;-75
2024/01/19 06:20:22;;;;;;;;;;;-2.60;99.90;;;;;;20896135;28;19928;-77
2024/01/19 06:30:23;;;;;;;;;;;-2.80;99.90;;;;;;20854327;28;20292;-77
2024/01/19 06:40:23;;;;;;;;;;;-2.70;99.90;;;;;;20837191;28;19925;-77
2024/01/19 06:50:24;;;;;;;;;;;-3.10;99.90;;;;;;20839069;28;19923;-77
2024/01/19 07:00:25;;;;;;;;;;;-2.90;99.90;;;;;;20833866;28;19971;-78
2024/01/19 07:10:26;;;;;;;;;;;-2.50;99.90;;;;;;20857932;28;19974;-77
2024/01/19 07:20:27;;;;;;;;;;;-2.30;99.90;;;;;;20849204;28;19925;-75
2024/01/19 07:30:27;;;;;;;;;;;-2.10;99.90;;;;;;20849893;28;19924;-76
2024/01/19 07:40:28;;;;;;;;;;;-2.00;99.90;;;;;;20867252;28;19924;-77
2024/01/19 07:50:28;;;;;;;;;;;-1.80;99.90;;;;;;20861200;28;19913;-77
2024/01/19 08:00:29;;;;;;;;;;;-1.60;99.90;;;;;;20872043;28;19963;-78
2024/01/19 08:10:32;;;;;;;;;;;-1.20;99.90;;;;;;20866370;28;19913;-77
2024/01/19 08:20:32;;;;;;;;;;;0.60;99.90;;;;;;20870896;28;19921;-78
2024/01/19 08:30:33;;;;;;;;;;;1.00;99.90;;;;;;20857860;28;19927;-78
2024/01/19 08:40:34;;;;;;;;;;;0.40;99.90;;;;;;20853857;28;19917;-76
2024/01/19 08:50:35;;;;;;;;;;;0.60;99.90;;;;;;20886047;28;20375;-77
2024/01/19 09:00:35;;;;;;;;;;;-0.50;99.90;;;;;;20880362;28;19917;-76
2024/01/19 09:10:36;;;;;;;;;;;-1.00;99.90;;;;;;20860045;28;19920;-76
2024/01/19 09:20:36;;;;;;;;;;;-0.90;99.90;;;;;;20877005;28;20400;-78
2024/01/19 09:30:37;;;;;;;;;;;-0.80;99.90;;;;;;20877749;28;19917;-78
2024/01/19 09:40:40;;;;;;;;;;;-0.70;99.90;;;;;;20879914;28;19923;-77
2024/01/19 09:50:41;;;;;;;;;;;-0.50;99.90;;;;;;20938118;28;19948;-78
2024/01/19 10:00:42;;;;;;;;;;;-0.20;99.90;;;;;;20942661;28;19923;-78
2024/01/19 10:10:43;;;;;;;;;;;0.60;99.90;;;;;;20858814;28;19920;-78
2024/01/19 10:20:48;;;;;;;;;;;1.30;99.90;;;;;;20842649;28;20380;-77
2024/01/19 10:30:49;;;;;;;;;;;2.40;99.90;;;;;;20863265;28;19925;-77
2024/01/19 10:40:49;;;;;;;;;;;4.40;99.90;;;;;;20889830;28;19917;-77
2024/01/19 10:51:00;;;;;;;;;;;7.00;99.90;;;;;;20868419;28;20436;-77
2024/01/19 11:01:16;;;;;;;;;;;7.00;99.90;;;;;;20855049;28;20335;-77
2024/01/19 11:11:20;;;;;;;;;;;8.00;99.90;;;;;;20941117;28;19974;-78
2024/01/19 11:21:21;;;;;;;;;;;9.70;99.90;;;;;;20954162;28;19917;-78
2024/01/19 11:31:23;;;;;;;;;;;10.60;99.90;;;;;;20949553;28;20368;-78
2024/01/19 11:41:33;;;;;;;;;;;8.70;99.90;;;;;;20929845;28;20288;-78
2024/01/19 11:51:34;;;;;;;;;;;5.90;99.90;;;;;;20898946;28;19956;-78
2024/01/19 12:01:38;;;;;;;;;;;6.00;99.90;;;;;;20890202;28;20407;-78
2024/01/19 12:11:39;;;;;;;;;;;5.30;99.90;;;;;;20868374;28;20007;-76
2024/01/19 12:21:40;;;;;;;;;;;4.20;99.90;;;;;;20885301;28;19982;-77
2024/01/19 12:31:41;;;;;;;;;;;4.60;99.90;;;;;;20879060;28;19939;-76
2024/01/19 12:41:42;;;;;;;;;;;5.10;99.90;;;;;;20876494;28;19917;-77
2024/01/19 12:51:44;;;;;;;;;;;4.90;99.90;;;;;;20881984;28;19925;-78
2024/01/19 13:01:48;;;;;;;;;;;4.90;99.90;;;;;;20907906;28;19917;-78
2024/01/19 13:11:48;;;;;;;;;;;5.40;99.90;;;;;;20890490;28;19944;-77
2024/01/19 13:21:49;;;;;;;;;;;6.90;99.90;;;;;;20876489;28;19932;-78
2024/01/19 13:31:50;;;;;;;;;;;5.80;99.90;;;;;;20873284;28;20062;-78
2024/01/19 13:41:50;;;;;;;;;;;7.30;99.90;;;;;;20858339;28;19917;-77
2024/01/19 13:51:51;;;;;;;;;;;8.70;99.90;;;;;;20873617;28;19913;-77
2024/01/19 14:01:52;;;;;;;;;;;7.90;99.90;;;;;;20850722;28;19928;-77
2024/01/19 14:11:52;;;;;;;;;;;8.10;99.90;;;;;;20881370;28;20335;-77
2024/01/19 14:21:53;;;;;;;;;;;7.90;99.90;;;;;;20851335;28;19921;-77
2024/01/19 14:31:54;;;;;;;;;;;7.90;99.90;;;;;;20845991;28;19996;-77
2024/01/19 14:41:55;;;;;;;;;;;5.70;99.90;;;;;;20835791;28;19937;-77
2024/01/19 14:51:56;;;;;;;;;;;5.70;99.90;;;;;;20875934;28;20012;-77
2024/01/19 15:01:57;;;;;;;;;;;6.50;99.90;;;;;;20873382;28;19921;-78
2024/01/19 15:11:57;;;;;;;;;;;6.10;99.90;;;;;;20869004;28;19993;-77
2024/01/19 15:21:58;;;;;;;;;;;6.00;99.90;;;;;;20860971;28;20426;-77
2024/01/19 15:31:59;;;;;;;;;;;5.80;99.90;;;;;;20854383;28;19952;-77
2024/01/19 15:42:01;;;;;;;;;;;5.40;99.90;;;;;;20865612;28;19917;-77
2024/01/19 15:52:01;;;;;;;;;;;2.70;99.90;;;;;;20831387;28;19913;-77
2024/01/19 16:02:02;;;;;;;;;;;0.60;99.90;;;;;;20864919;28;19921;-76
2024/01/19 16:12:04;;;;;;;;;;;0.70;99.90;;;;;;20855767;28;19917;-77
2024/01/19 16:22:04;;;;;;;;;;;-0.90;99.90;;;;;;20845488;28;19922;-76
2024/01/19 16:32:08;;;;;;;;;;;-1.00;99.90;;;;;;20825749;28;19917;-76
2024/01/19 16:42:09;;;;;;;;;;;-1.10;99.90;;;;;;20847000;28;19971;-76
2024/01/19 16:52:10;;;;;;;;;;;-1.60;99.90;;;;;;20861706;28;19996;-76
2024/01/19 17:02:10;;;;;;;;;;;-1.90;99.90;;;;;;20905287;28;19952;-74
2024/01/19 17:12:11;;;;;;;;;;;-1.90;99.90;;;;;;20898009;28;19913;-77
2024/01/19 17:22:12;;;;;;;;;;;-2.10;99.90;;;;;;20909733;28;20342;-77
2024/01/19 17:32:13;;;;;;;;;;;-2.30;99.90;;;;;;20884934;28;19924;-76
2024/01/19 17:42:14;;;;;;;;;;;-1.90;99.90;;;;;;20889185;28;20281;-76
2024/01/19 17:52:15;;;;;;;;;;;-1.70;99.90;;;;;;20859563;28;19913;-77
2024/01/19 18:02:15;;;;;;;;;;;-2.60;99.90;;;;;;20859805;28;19916;-75
2024/01/19 18:12:18;;;;;;;;;;;-2.50;99.90;;;;;;20854666;28;19920;-76
2024/01/19 18:22:19;;;;;;;;;;;-2.20;99.90;;;;;;20853045;28;19968;-76
2024/01/19 18:32:19;;;;;;;;;;;-2.20;99.90;;;;;;20873421;28;19936;-76
2024/01/19 18:42:20;;;;;;;;;;;-2.50;99.90;;;;;;20837061;28;20483;-75
2024/01/19 18:52:21;;;;;;;;;;;-2.50;99.90;;;;;;20854071;28;20300;-75
2024/01/19 19:02:22;;;;;;;;;;;-2.60;99.90;;;;;;20845416;28;19962;-74
2024/01/19 19:12:23;;;;;;;;;;;-2.80;99.90;;;;;;20854862;28;20353;-74
2024/01/19 19:22:24;;;;;;;;;;;-2.80;99.90;;;;;;20847457;28;19991;-75
2024/01/19 19:32:24;;;;;;;;;;;-2.80;99.90;;;;;;20849345;28;19917;-75
2024/01/19 19:42:26;;;;;;;;;;;-2.90;99.90;;;;;;20854871;28;19917;-74
2024/01/19 19:52:27;;;;;;;;;;;-3.00;99.90;;;;;;20844364;28;20372;-74
2024/01/19 20:02:27;;;;;;;;;;;-2.90;99.90;;;;;;20842840;28;20062;-74
2024/01/19 20:12:28;;;;;;;;;;;-3.00;99.90;;;;;;20842571;28;19967;-74
2024/01/19 20:22:29;;;;;;;;;;;-3.00;99.90;;;;;;20833216;28;20384;-75
2024/01/19 20:32:29;;;;;;;;;;;-3.20;99.90;;;;;;20849441;28;19923;-75
2024/01/19 20:42:30;;;;;;;;;;;-3.50;99.90;;;;;;20849693;28;19916;-75
2024/01/19 20:52:30;;;;;;;;;;;-3.30;99.90;;;;;;20857466;28;19956;-75
2024/01/19 21:02:31;;;;;;;;;;;-3.40;99.90;;;;;;20840277;28;19940;-75
2024/01/19 21:12:32;;;;;;;;;;;-3.70;99.90;;;;;;20837009;28;20335;-75
2024/01/19 21:22:33;;;;;;;;;;;-3.90;99.90;;;;;;20838290;28;19917;-74
2024/01/19 21:32:34;;;;;;;;;;;-3.90;99.90;;;;;;20831073;28;19936;-75
2024/01/19 21:42:35;;;;;;;;;;;-4.10;99.90;;;;;;20835839;28;19917;-73
2024/01/19 21:52:36;;;;;;;;;;;-4.30;99.90;;;;;;20859192;28;20003;-75
2024/01/19 22:02:37;;;;;;;;;;;-4.30;99.90;;;;;;20831197;28;20458;-75
2024/01/19 22:12:37;;;;;;;;;;;-4.20;99.90;;;;;;20910123;28;19966;-74
2024/01/19 22:22:38;;;;;;;;;;;-4.20;99.90;;;;;;20875258;28;19917;-74
2024/01/19 22:32:39;;;;;;;;;;;-4.40;99.90;;;;;;20853944;28;19939;-74
2024/01/19 22:42:40;;;;;;;;;;;-4.70;99.90;;;;;;20868456;28;19917;-75
2024/01/19 22:52:40;;;;;;;;;;;-5.20;99.90;;;;;;20871192;28;20348;-75
2024/01/19 23:02:41;;;;;;;;;;;-5.00;99.90;;;;;;20864568;28;19917;-76
2024/01/19 23:12:42;;;;;;;;;;;-5.00;99.90;;;;;;20862555;28;19921;-76
2024/01/19 23:22:43;;;;;;;;;;;-4.60;99.90;;;;;;20857935;28;19932;-76
2024/01/19 23:32:44;;;;;;;;;;;-4.80;99.90;;;;;;20856646;28;20101;-76
2024/01/19 23:42:45;;;;;;;;;;;-4.70;99.90;;;;;;20855415;28;19956;-75
2024/01/19 23:52:45;;;;;;;;;;;-4.80;99.90;;;;;;20865849;28;19913;-74
